Time;durP1;ratioP1;P1;durP2;ratioP2;P2;SDS_P1;SDS_P2;PMS_P1;PMS_P2;Temp;Humidity;BMP_temperature;BMP_pressure;BME280_temperature;BME280_humidity;BME280_pressure;Samples;Min_cycle;Max_cycle;Signal;HPM_P1;HPM_P2
2022/08/28 00:01:40;;;;;;;4.22;1.30;;;16.30;99.90;;;;;;4976252;28;20046;-75
2022/08/28 00:04:06;;;;;;;4.20;1.10;;;16.20;99.90;;;;;;4975239;28;20059;-76
2022/08/28 00:06:32;;;;;;;5.88;1.27;;;16.30;99.90;;;;;;4976450;28;20512;-76
2022/08/28 00:08:58;;;;;;;4.40;1.17;;;16.10;99.90;;;;;;4976172;28;20410;-76
2022/08/28 00:11:24;;;;;;;4.47;1.17;;;16.00;99.90;;;;;;4991410;28;20039;-76
2022/08/28 00:13:49;;;;;;;3.97;1.17;;;16.00;99.90;;;;;;4976076;28;20054;-76
2022/08/28 00:16:17;;;;;;;3.15;1.00;;;16.00;99.90;;;;;;4975721;28;20566;-76
2022/08/28 00:18:43;;;;;;;4.50;1.08;;;15.90;99.90;;;;;;4976028;28;20078;-76
2022/08/28 00:21:10;;;;;;;5.50;1.02;;;16.00;99.90;;;;;;4974995;28;20054;-76
2022/08/28 00:23:35;;;;;;;3.78;0.93;;;15.90;99.90;;;;;;4976236;28;20507;-76
2022/08/28 00:26:01;;;;;;;5.47;1.20;;;15.80;99.90;;;;;;4974929;28;20046;-76
2022/08/28 00:28:28;;;;;;;3.20;0.98;;;15.80;99.90;;;;;;4974779;28;20482;-76
2022/08/28 00:30:57;;;;;;;4.25;1.02;;;15.80;99.90;;;;;;4975622;28;20047;-76
2022/08/28 00:33:32;;;;;;;4.18;0.80;;;15.80;99.90;;;;;;4975995;28;20058;-76
2022/08/28 00:35:59;;;;;;;4.22;1.10;;;15.70;99.90;;;;;;4975655;28;20054;-76
2022/08/28 00:38:26;;;;;;;4.75;1.20;;;15.80;99.90;;;;;;4974444;28;20133;-76
2022/08/28 00:40:56;;;;;;;5.40;1.20;;;15.90;99.90;;;;;;4975604;28;20485;-76
2022/08/28 00:43:33;;;;;;;4.38;1.10;;;15.80;99.90;;;;;;4974320;28;20043;-76
2022/08/28 00:46:02;;;;;;;3.75;0.90;;;15.90;99.90;;;;;;4975703;28;20047;-76
2022/08/28 00:48:29;;;;;;;5.72;1.33;;;15.80;99.90;;;;;;4974355;28;20054;-76
2022/08/28 00:53:40;;;;;;;4.45;1.20;;;15.80;99.90;;;;;;4975443;28;20109;-76
2022/08/28 00:56:09;;;;;;;7.40;1.13;;;15.90;99.90;;;;;;4990216;28;20042;-77
2022/08/28 00:58:36;;;;;;;4.40;1.50;;;15.90;99.90;;;;;;4975455;28;20130;-76
2022/08/28 01:01:02;;;;;;;5.97;1.35;;;15.90;99.90;;;;;;4975419;28;20121;-76
2022/08/28 01:03:28;;;;;;;5.82;1.30;;;15.80;99.90;;;;;;4975285;28;20109;-76
2022/08/28 01:05:54;;;;;;;6.15;1.10;;;16.00;99.90;;;;;;4973939;28;20042;-76
2022/08/28 01:08:19;;;;;;;5.55;1.02;;;15.90;99.90;;;;;;4975269;28;20050;-76
2022/08/28 01:10:50;;;;;;;6.88;1.15;;;16.00;99.90;;;;;;4974246;28;20042;-76
2022/08/28 01:13:16;;;;;;;5.93;1.10;;;15.90;99.90;;;;;;4975164;28;20125;-76
2022/08/28 01:15:43;;;;;;;3.33;1.35;;;15.90;99.90;;;;;;4974853;28;20066;-76
2022/08/28 01:18:12;;;;;;;4.85;1.25;;;15.90;99.90;;;;;;4974825;28;20106;-76
2022/08/28 01:20:49;;;;;;;3.42;1.00;;;16.00;99.90;;;;;;4974449;28;20046;-76
2022/08/28 01:23:23;;;;;;;4.72;1.20;;;15.80;99.90;;;;;;4974893;28;20497;-76
2022/08/28 01:25:51;;;;;;;5.72;1.20;;;16.00;99.90;;;;;;4974552;28;20057;-76
2022/08/28 01:28:17;;;;;;;8.50;1.52;;;16.00;99.90;;;;;;4973753;28;20054;-76
2022/08/28 01:30:45;;;;;;;3.85;0.98;;;15.80;99.90;;;;;;4957452;28;20062;-76
2022/08/28 01:33:13;;;;;;;5.50;1.80;;;15.80;99.90;;;;;;4974767;28;20053;-76
2022/08/28 01:35:42;;;;;;;4.95;1.05;;;15.80;99.90;;;;;;4974638;28;20058;-76
2022/08/28 01:38:08;;;;;;;5.03;1.30;;;15.80;99.90;;;;;;4973441;28;20098;-76
2022/08/28 01:40:41;;;;;;;7.05;1.40;;;15.80;99.90;;;;;;4973287;28;20070;-76
2022/08/28 01:43:09;;;;;;;;;;;15.80;99.90;;;;;;4973944;28;20047;-76
2022/08/28 01:45:36;;;;;;;5.40;1.02;;;15.70;99.90;;;;;;4974501;28;20020;-76
2022/08/28 01:48:04;;;;;;;3.78;1.30;;;15.70;99.90;;;;;;4974446;28;20106;-76
2022/08/28 01:50:30;;;;;;;2.63;1.00;;;15.60;99.90;;;;;;4973199;28;20054;-76
2022/08/28 01:52:56;;;;;;;7.57;1.20;;;15.60;99.90;;;;;;4974615;28;20061;-76
2022/08/28 01:55:22;;;;;;;4.88;1.20;;;15.60;99.90;;;;;;4989687;28;20042;-76
2022/08/28 01:57:51;;;;;;;5.53;1.20;;;15.60;99.90;;;;;;4974481;28;20038;-76
2022/08/28 02:00:17;;;;;;;4.93;1.30;;;15.50;99.90;;;;;;4974431;28;20078;-76
2022/08/28 02:02:43;;;;;;;5.18;1.10;;;15.40;99.90;;;;;;4989236;28;20055;-76
2022/08/28 02:05:10;;;;;;;4.90;1.08;;;15.30;99.90;;;;;;4974468;28;20105;-76
2022/08/28 02:07:36;;;;;;;6.82;1.50;;;15.40;99.90;;;;;;4973302;28;20046;-76
2022/08/28 02:10:03;;;;;;;6.90;1.50;;;15.30;99.90;;;;;;4974484;28;20399;-76
2022/08/28 02:12:28;;;;;;;5.75;1.00;;;15.40;99.90;;;;;;4973591;28;20063;-76
2022/08/28 02:14:54;;;;;;;3.65;1.27;;;15.30;99.90;;;;;;4974122;28;20063;-76
2022/08/28 02:17:20;;;;;;;3.92;1.02;;;15.30;99.90;;;;;;4988972;28;20443;-76
2022/08/28 02:19:46;;;;;;;6.35;1.42;;;15.30;99.90;;;;;;4974672;28;20078;-76
2022/08/28 02:22:13;;;;;;;5.18;1.50;;;15.20;99.90;;;;;;4972901;28;20495;-75
2022/08/28 02:24:39;;;;;;;4.97;1.30;;;15.10;99.90;;;;;;4973755;28;20054;-75
2022/08/28 02:27:05;;;;;;;8.55;1.17;;;15.10;99.90;;;;;;4974316;28;20050;-76
2022/08/28 02:29:31;;;;;;;6.00;1.60;;;15.10;99.90;;;;;;4973244;28;20522;-75
2022/08/28 02:31:57;;;;;;;5.07;1.65;;;15.10;99.90;;;;;;4973980;28;20090;-76
2022/08/28 02:34:23;;;;;;;5.45;1.40;;;15.20;99.90;;;;;;4973427;28;20054;-76
2022/08/28 02:36:49;;;;;;;4.28;1.23;;;15.00;99.90;;;;;;4974216;28;20145;-75
2022/08/28 02:39:15;;;;;;;3.97;1.30;;;15.00;99.90;;;;;;4974024;28;20086;-75
2022/08/28 02:41:40;;;;;;;8.18;1.92;;;15.00;99.90;;;;;;4989064;28;20138;-75
2022/08/28 02:44:06;;;;;;;9.68;1.70;;;15.00;99.90;;;;;;4977089;28;20039;-75
2022/08/28 02:46:32;;;;;;;4.80;1.42;;;15.10;99.90;;;;;;4976683;28;20101;-76
2022/08/28 02:48:58;;;;;;;5.47;1.30;;;15.00;99.90;;;;;;4977059;28;20133;-76
2022/08/28 02:51:24;;;;;;;3.60;1.05;;;15.00;99.90;;;;;;4977351;28;20050;-76
2022/08/28 02:53:51;;;;;;;6.05;1.10;;;15.00;99.90;;;;;;4977707;28;20047;-76
2022/08/28 02:56:16;;;;;;;3.95;1.50;;;14.10;99.90;;;;;;4977560;28;20050;-75
2022/08/28 02:58:42;;;;;;;4.93;1.33;;;15.00;99.90;;;;;;4976310;28;20035;-76
2022/08/28 03:01:10;;;;;;;3.95;1.08;;;15.00;99.90;;;;;;4977374;28;20142;-75
2022/08/28 03:03:36;;;;;;;5.55;1.70;;;15.00;99.90;;;;;;4977555;28;20045;-75
2022/08/28 03:06:03;;;;;;;5.03;1.10;;;15.00;99.90;;;;;;4977552;28;20050;-76
2022/08/28 03:08:30;;;;;;;3.75;1.42;;;14.90;99.90;;;;;;4977303;28;20380;-75
2022/08/28 03:10:56;;;;;;;4.88;1.38;;;14.90;99.90;;;;;;4977357;28;20050;-76
2022/08/28 03:13:22;;;;;;;7.70;1.30;;;14.90;99.90;;;;;;4977256;28;20106;-76
2022/08/28 03:15:48;;;;;;;5.20;1.20;;;14.90;99.90;;;;;;4977103;28;20066;-75
2022/08/28 03:18:14;;;;;;;3.78;1.20;;;14.80;99.90;;;;;;4960111;28;20082;-76
2022/08/28 03:20:41;;;;;;;5.97;1.48;;;14.80;99.90;;;;;;4975796;28;20499;-75
2022/08/28 03:23:25;;;;;;;4.82;1.38;;;14.80;99.90;;;;;;4977215;28;20047;-76
2022/08/28 03:26:03;;;;;;;4.57;1.27;;;14.70;99.90;;;;;;4977230;28;20047;-75
2022/08/28 03:28:37;;;;;;;4.07;2.13;;;14.70;99.90;;;;;;4976924;28;20558;-75
2022/08/28 03:31:04;;;;;;;8.10;1.60;;;14.70;99.90;;;;;;4977243;28;20090;-75
2022/08/28 03:33:32;;;;;;;5.55;1.35;;;14.70;99.90;;;;;;4977153;28;20101;-75
2022/08/28 03:35:58;;;;;;;5.53;1.48;;;14.70;99.90;;;;;;4976902;28;20050;-75
2022/08/28 03:38:24;;;;;;;3.60;1.42;;;14.70;99.90;;;;;;4976764;28;20034;-75
2022/08/28 03:40:50;;;;;;;5.15;1.33;;;14.70;99.90;;;;;;4975647;28;20051;-75
2022/08/28 03:43:23;;;;;;;5.55;1.15;;;14.70;99.90;;;;;;4977135;28;20061;-75
2022/08/28 03:45:57;;;;;;;5.10;1.00;;;14.70;99.90;;;;;;4976822;28;20093;-75
2022/08/28 03:48:25;;;;;;;6.07;1.42;;;14.70;99.90;;;;;;4977235;28;20438;-75
2022/08/28 03:50:53;;;;;;;5.47;1.20;;;14.70;99.90;;;;;;4976273;28;20129;-75
2022/08/28 03:53:25;;;;;;;4.22;1.30;;;14.60;99.90;;;;;;4976261;28;20047;-75
2022/08/28 03:55:52;;;;;;;5.07;1.20;;;14.60;99.90;;;;;;4976673;28;20451;-75
2022/08/28 03:58:18;;;;;;;4.88;1.08;;;14.60;99.90;;;;;;4976503;28;20100;-75
2022/08/28 04:00:44;;;;;;;5.70;1.23;;;14.60;99.90;;;;;;4976768;28;20047;-75
2022/08/28 04:03:13;;;;;;;4.78;1.25;;;14.60;99.90;;;;;;4975495;28;20050;-75
2022/08/28 04:05:43;;;;;;;5.05;1.20;;;14.50;99.90;;;;;;4976375;28;20124;-75
2022/08/28 04:08:14;;;;;;;5.25;1.02;;;14.60;99.90;;;;;;4976424;28;20042;-75
2022/08/28 04:10:41;;;;;;;5.25;1.30;;;14.50;99.90;;;;;;4976528;28;20050;-76
2022/08/28 04:13:07;;;;;;;4.60;1.00;;;14.50;99.90;;;;;;4976318;28;20573;-75
2022/08/28 04:15:33;;;;;;;5.68;1.40;;;14.50;99.90;;;;;;4975095;28;20403;-75
2022/08/28 04:17:59;;;;;;;7.15;1.25;;;14.50;99.90;;;;;;4976032;28;20077;-75
2022/08/28 04:20:26;;;;;;;3.67;1.63;;;14.50;99.90;;;;;;4975739;28;20133;-75
2022/08/28 04:22:51;;;;;;;5.75;1.00;;;14.50;99.90;;;;;;4976224;28;20051;-75
2022/08/28 04:25:17;;;;;;;5.20;1.30;;;14.50;99.90;;;;;;4976112;28;20042;-75
2022/08/28 04:27:43;;;;;;;3.30;1.17;;;14.60;99.90;;;;;;4976038;28;20046;-75
2022/08/28 04:30:10;;;;;;;2.30;1.00;;;14.50;99.90;;;;;;4974569;28;20137;-75
2022/08/28 04:32:37;;;;;;;5.35;1.27;;;14.50;99.90;;;;;;4974852;28;20039;-75
2022/08/28 04:35:05;;;;;;;4.97;1.27;;;14.60;99.90;;;;;;4975589;28;20050;-75
2022/08/28 04:37:31;;;;;;;3.15;1.20;;;14.60;99.90;;;;;;4975868;28;20050;-75
2022/08/28 04:39:57;;;;;;;4.78;1.30;;;14.60;99.90;;;;;;4974565;28;20066;-75
2022/08/28 04:42:23;;;;;;;5.05;0.98;;;14.50;99.90;;;;;;4974699;28;20061;-75
2022/08/28 04:44:49;;;;;;;6.95;1.10;;;14.50;99.90;;;;;;4975747;28;20101;-75
2022/08/28 04:47:15;;;;;;;3.67;1.10;;;14.60;99.90;;;;;;4975651;28;20503;-76
2022/08/28 04:49:40;;;;;;;2.42;1.00;;;14.50;99.90;;;;;;4975373;28;20514;-75
2022/08/28 04:52:06;;;;;;;3.30;0.93;;;14.50;99.90;;;;;;4974047;28;20046;-75
2022/08/28 04:54:33;;;;;;;3.75;0.88;;;14.50;99.90;;;;;;4975581;28;20042;-75
2022/08/28 04:56:59;;;;;;;5.43;1.08;;;14.50;99.90;;;;;;4974701;28;20181;-75
2022/08/28 04:59:26;;;;;;;6.32;1.10;;;14.50;99.90;;;;;;4975225;28;20047;-75
2022/08/28 05:01:52;;;;;;;2.88;1.00;;;14.50;99.90;;;;;;4975275;28;20050;-75
2022/08/28 05:04:18;;;;;;;3.28;0.90;;;14.50;99.90;;;;;;4975087;28;20491;-76
2022/08/28 05:06:45;;;;;;;4.30;1.23;;;14.50;99.90;;;;;;4974757;28;20105;-75
2022/08/28 05:09:15;;;;;;;5.53;1.00;;;14.50;99.90;;;;;;4975283;28;20042;-75
2022/08/28 05:11:43;;;;;;;3.83;1.20;;;14.40;99.90;;;;;;4974520;28;20070;-76
2022/08/28 05:14:11;;;;;;;4.65;1.00;;;14.50;99.90;;;;;;4975401;28;20046;-75
2022/08/28 05:16:46;;;;;;;6.60;1.05;;;14.50;99.90;;;;;;4975525;28;20127;-75
2022/08/28 05:19:12;;;;;;;4.32;1.10;;;14.50;99.90;;;;;;4975176;28;20051;-75
2022/08/28 05:21:39;;;;;;;3.72;1.00;;;14.50;99.90;;;;;;4974605;28;20121;-75
2022/08/28 05:24:06;;;;;;;6.13;1.00;;;14.50;99.90;;;;;;4974962;28;20051;-75
2022/08/28 05:26:33;;;;;;;2.53;0.98;;;14.50;99.90;;;;;;4973952;28;20129;-75
2022/08/28 05:28:58;;;;;;;3.63;0.80;;;14.60;99.90;;;;;;4974800;28;20499;-75
2022/08/28 05:31:26;;;;;;;6.03;1.33;;;14.60;99.90;;;;;;4974612;28;20097;-75
2022/08/28 05:33:52;;;;;;;2.40;1.05;;;14.60;99.90;;;;;;4975006;28;20093;-75
2022/08/28 05:36:21;;;;;;;2.30;0.88;;;14.60;99.90;;;;;;4974856;28;20047;-75
2022/08/28 05:38:48;;;;;;;4.30;0.90;;;14.60;99.90;;;;;;4974797;28;20063;-75
2022/08/28 05:41:25;;;;;;;6.38;1.00;;;14.60;99.90;;;;;;4973689;28;20089;-75
2022/08/28 05:43:52;;;;;;;4.38;0.90;;;14.70;99.90;;;;;;4974523;28;20054;-75
2022/08/28 05:46:19;;;;;;;5.68;1.05;;;14.70;99.90;;;;;;4974415;28;20463;-75
2022/08/28 05:48:47;;;;;;;5.57;0.90;;;14.70;99.90;;;;;;4974655;28;20120;-75
2022/08/28 05:51:16;;;;;;;3.10;1.23;;;14.70;99.90;;;;;;4974136;28;20545;-75
2022/08/28 05:53:43;;;;;;;5.80;1.00;;;14.70;99.90;;;;;;4974522;28;20038;-75
2022/08/28 05:56:13;;;;;;;4.03;0.93;;;14.70;99.90;;;;;;4974333;28;20546;-76
2022/08/28 05:58:39;;;;;;;4.32;0.80;;;14.80;99.90;;;;;;4974960;28;20093;-75
2022/08/28 06:01:18;;;;;;;3.33;1.00;;;14.80;99.90;;;;;;4989450;28;20046;-75
2022/08/28 06:03:50;;;;;;;5.55;0.90;;;14.80;99.90;;;;;;4974479;28;20121;-75
2022/08/28 06:06:16;;;;;;;3.63;0.90;;;14.90;99.90;;;;;;4973426;28;20121;-75
2022/08/28 06:08:41;;;;;;;5.50;0.88;;;14.90;99.90;;;;;;4974326;28;20134;-75
2022/08/28 06:11:07;;;;;;;4.13;1.27;;;15.00;99.90;;;;;;4957294;28;20042;-75
2022/08/28 06:13:34;;;;;;;4.15;0.98;;;15.00;99.90;;;;;;4974600;28;20113;-76
2022/08/28 06:16:00;;;;;;;2.60;0.90;;;15.10;99.90;;;;;;4973062;28;20623;-75
2022/08/28 06:18:25;;;;;;;3.63;0.95;;;15.10;99.90;;;;;;4976955;28;20042;-75
2022/08/28 06:20:52;;;;;;;3.28;0.82;;;15.20;99.90;;;;;;4976970;28;20047;-75
2022/08/28 06:23:19;;;;;;;2.45;1.00;;;15.30;99.90;;;;;;4978073;28;20056;-75
2022/08/28 06:25:48;;;;;;;3.28;1.13;;;15.30;99.90;;;;;;4977128;28;20055;-75
2022/08/28 06:28:16;;;;;;;2.53;0.80;;;15.30;99.90;;;;;;4978212;28;20451;-76
2022/08/28 06:30:42;;;;;;;4.13;0.77;;;15.40;99.90;;;;;;4978125;28;20081;-75
2022/08/28 06:33:09;;;;;;;4.03;0.80;;;15.40;99.90;;;;;;4977171;28;20180;-76
2022/08/28 06:35:43;;;;;;;4.88;0.85;;;15.40;99.90;;;;;;4977857;28;20483;-75
2022/08/28 06:38:09;;;;;;;3.40;0.80;;;15.50;99.90;;;;;;4992713;28;20137;-75
2022/08/28 06:40:47;;;;;;;3.05;0.80;;;15.50;99.90;;;;;;4978048;28;20058;-75
2022/08/28 06:43:13;;;;;;;2.67;0.77;;;15.50;99.90;;;;;;4978219;28;20158;-75
2022/08/28 06:45:41;;;;;;;3.83;0.80;;;15.60;99.90;;;;;;4992779;28;20047;-76
2022/08/28 06:48:09;;;;;;;5.55;1.35;;;15.60;99.90;;;;;;4977628;28;20053;-76
2022/08/28 06:50:41;;;;;;;1.63;0.65;;;15.70;99.90;;;;;;4977097;28;20059;-76
2022/08/28 06:53:08;;;;;;;3.05;0.70;;;15.80;99.90;;;;;;4976827;28;20487;-76
2022/08/28 06:55:35;;;;;;;3.33;0.68;;;15.80;99.90;;;;;;4977635;28;20529;-76
2022/08/28 06:58:01;;;;;;;4.88;0.70;;;15.90;99.90;;;;;;4976500;28;20042;-76
2022/08/28 07:00:27;;;;;;;2.33;0.60;;;16.00;99.90;;;;;;4977653;28;20129;-76
2022/08/28 07:02:52;;;;;;;2.72;0.80;;;16.10;99.90;;;;;;4977603;28;20101;-77
2022/08/28 07:05:18;;;;;;;3.60;0.60;;;16.20;99.90;;;;;;4960630;28;20047;-76
2022/08/28 07:07:44;;;;;;;6.03;0.60;;;16.30;99.90;;;;;;4976789;28;20141;-79
2022/08/28 07:10:09;;;;;;;6.28;0.80;;;16.40;99.90;;;;;;4976705;28;20553;-77
2022/08/28 07:12:35;;;;;;;5.25;0.80;;;16.50;99.90;;;;;;4976829;28;20390;-77
2022/08/28 07:15:03;;;;;;;3.53;0.75;;;16.70;99.90;;;;;;4977414;28;20051;-77
2022/08/28 07:17:29;;;;;;;4.28;0.73;;;16.80;99.90;;;;;;4977394;28;20057;-80
2022/08/28 07:19:54;;;;;;;4.00;0.80;;;16.90;99.90;;;;;;4976319;28;20046;-80
2022/08/28 07:22:21;;;;;;;2.85;0.63;;;16.90;99.90;;;;;;4976024;28;20054;-77
2022/08/28 07:24:47;;;;;;;2.63;0.73;;;17.00;99.90;;;;;;4972647;28;20554;-77
2022/08/28 07:27:13;;;;;;;2.70;0.60;;;17.10;99.90;;;;;;4966823;28;20047;-77
2022/08/28 07:29:38;;;;;;;5.50;0.90;;;17.10;99.90;;;;;;4965145;28;20144;-77
2022/08/28 07:32:04;;;;;;;3.13;0.70;;;17.10;99.90;;;;;;4967575;28;20054;-77
2022/08/28 07:34:30;;;;;;;5.25;0.75;;;17.20;99.90;;;;;;4967119;28;20069;-80
2022/08/28 07:37:02;;;;;;;1.95;0.70;;;17.30;99.90;;;;;;4965129;28;20090;-79
2022/08/28 07:39:28;;;;;;;3.17;0.70;;;17.30;99.90;;;;;;4967163;28;20105;-78
2022/08/28 07:41:54;;;;;;;3.08;0.60;;;17.40;99.90;;;;;;4967526;28;20063;-80
2022/08/28 07:47:05;;;;;;;4.45;0.80;;;17.60;99.90;;;;;;4964352;28;20055;-78
2022/08/28 07:49:32;;;;;;;2.72;0.70;;;17.80;99.90;;;;;;4972386;28;20078;-78
2022/08/28 07:51:58;;;;;;;2.83;0.80;;;17.80;99.90;;;;;;4972021;28;20051;-81
2022/08/28 07:54:24;;;;;;;3.75;0.65;;;17.80;99.90;;;;;;4969405;28;20054;-77
2022/08/28 07:56:51;;;;;;;1.00;0.60;;;17.80;99.90;;;;;;4954131;28;20562;-78
2022/08/28 07:59:17;;;;;;;4.47;0.70;;;17.80;99.90;;;;;;4970814;28;20046;-77
2022/08/28 08:01:45;;;;;;;5.22;0.90;;;17.80;99.90;;;;;;4971366;28;20051;-77
2022/08/28 08:04:12;;;;;;;4.60;0.65;;;17.80;99.90;;;;;;4969138;28;20043;-80
2022/08/28 08:06:40;;;;;;;5.57;1.05;;;17.70;99.90;;;;;;4968193;28;20093;-79
2022/08/28 08:09:09;;;;;;;3.75;0.80;;;17.80;99.90;;;;;;4965763;28;20046;-78
2022/08/28 08:11:35;;;;;;;4.57;0.82;;;17.90;99.90;;;;;;4969167;28;20058;-78
2022/08/28 08:14:03;;;;;;;3.97;0.75;;;18.00;99.90;;;;;;4968301;28;20054;-78
2022/08/28 08:16:32;;;;;;;3.00;0.68;;;18.00;99.90;;;;;;4970344;28;20059;-80
2022/08/28 08:18:58;;;;;;;2.95;0.70;;;18.10;99.90;;;;;;4969027;28;20051;-76
2022/08/28 08:21:24;;;;;;;3.42;0.70;;;18.00;99.90;;;;;;4966159;28;20055;-75
2022/08/28 08:23:50;;;;;;;3.85;0.70;;;18.00;99.90;;;;;;4971115;28;20077;-76
2022/08/28 08:26:20;;;;;;;3.17;0.95;;;17.90;99.90;;;;;;4967904;28;20047;-76
2022/08/28 08:28:46;;;;;;;4.13;0.82;;;17.90;99.90;;;;;;4967338;28;20066;-75
2022/08/28 08:31:23;;;;;;;7.15;1.10;;;17.90;99.90;;;;;;4966534;28;20043;-77
2022/08/28 08:33:52;;;;;;;2.05;0.77;;;17.90;99.90;;;;;;4969567;28;20149;-75
2022/08/28 08:36:21;;;;;;;2.38;0.80;;;18.00;99.90;;;;;;4960223;28;20034;-79
2022/08/28 08:38:47;;;;;;;1.70;0.88;;;18.10;99.90;;;;;;4964701;28;20174;-76
2022/08/28 08:41:24;;;;;;;4.00;1.02;;;18.20;99.90;;;;;;4964577;28;20045;-76
2022/08/28 08:44:08;;;;;;;3.63;0.65;;;18.20;99.90;;;;;;4968498;28;20054;-81
2022/08/28 08:46:43;;;;;;;4.15;0.82;;;18.20;99.90;;;;;;4965174;28;20057;-77
2022/08/28 08:49:18;;;;;;;1.65;0.85;;;18.20;99.90;;;;;;4968577;28;20568;-80
2022/08/28 08:52:10;;;;;;;2.75;0.80;;;18.10;99.90;;;;;;4965287;28;20058;-79
2022/08/28 08:54:45;;;;;;;4.45;0.80;;;18.20;99.90;;;;;;4973595;28;20499;-78
2022/08/28 08:57:13;;;;;;;3.75;0.77;;;18.20;99.90;;;;;;4965252;28;20043;-79
2022/08/28 08:59:40;;;;;;;3.00;0.70;;;18.20;99.90;;;;;;4964934;28;20038;-79
2022/08/28 09:02:18;;;;;;;2.00;0.82;;;18.20;99.90;;;;;;4961509;28;20081;-78
2022/08/28 09:04:53;;;;;;;3.83;0.93;;;18.30;99.90;;;;;;4966504;28;20121;-77
2022/08/28 09:07:32;;;;;;;2.58;0.70;;;18.40;99.90;;;;;;4962542;28;20051;-76
2022/08/28 09:09:58;;;;;;;4.63;0.90;;;18.40;99.90;;;;;;4964849;28;20073;-76
2022/08/28 09:12:29;;;;;;;2.20;0.85;;;18.40;99.90;;;;;;4968498;28;20130;-78
2022/08/28 09:15:08;;;;;;;2.80;0.63;;;18.40;99.90;;;;;;4962172;28;20070;-85
2022/08/28 09:17:56;;;;;;;2.63;0.90;;;18.50;99.90;;;;;;4963591;28;20845;-78
2022/08/28 09:20:26;;;;;;;3.45;0.75;;;18.60;99.90;;;;;;4973734;28;20717;-82
2022/08/28 09:22:52;;;;;;;3.22;0.80;;;18.60;99.90;;;;;;4973699;28;20450;-85
2022/08/28 09:25:43;;;;;;;6.25;0.90;;;18.80;99.90;;;;;;4975093;28;20058;-82
2022/08/28 09:28:13;;;;;;;2.55;0.80;;;18.60;99.90;;;;;;4968643;28;20078;-81
2022/08/28 09:30:40;;;;;;;5.28;0.90;;;18.70;99.90;;;;;;4951827;28;20145;-82
2022/08/28 09:33:06;;;;;;;3.00;0.75;;;19.10;99.90;;;;;;4970368;28;20078;-79
2022/08/28 09:35:36;;;;;;;4.65;0.70;;;18.90;99.90;;;;;;4968711;28;20082;-78
2022/08/28 09:38:21;;;;;;;2.30;0.80;;;19.00;99.90;;;;;;4960203;28;20042;-81
2022/08/28 09:43:34;;;;;;;3.08;0.73;;;18.90;99.90;;;;;;4965689;28;20055;-80
2022/08/28 09:46:04;;;;;;;6.22;0.93;;;18.80;99.90;;;;;;4962280;28;20042;-78
2022/08/28 09:48:32;;;;;;;4.75;0.80;;;18.90;99.90;;;;;;4962500;28;20426;-80
2022/08/28 09:51:07;;;;;;;3.25;0.90;;;19.00;99.90;;;;;;4964682;28;20058;-84
2022/08/28 09:53:49;;;;;;;2.03;0.60;;;19.40;99.90;;;;;;4966564;28;20511;-79
2022/08/28 09:56:17;;;;;;;2.92;0.70;;;19.20;99.90;;;;;;4963804;28;20567;-80
2022/08/28 09:59:01;;;;;;;2.83;0.90;;;19.20;99.90;;;;;;4961289;28;20058;-78
2022/08/28 10:01:27;;;;;;;2.58;0.90;;;19.20;99.90;;;;;;4962523;28;20053;-79
2022/08/28 10:04:02;;;;;;;5.30;0.80;;;19.20;99.90;;;;;;4960120;28;20039;-76
2022/08/28 10:06:33;;;;;;;3.55;0.77;;;19.10;99.90;;;;;;4963931;28;20840;-77
2022/08/28 10:09:24;;;;;;;3.10;0.75;;;19.00;99.90;;;;;;4961675;28;20049;-77
2022/08/28 10:11:57;;;;;;;3.50;0.60;;;19.00;99.90;;;;;;4963103;28;20113;-77
2022/08/28 10:14:49;;;;;;;3.90;0.82;;;19.00;99.90;;;;;;4963921;28;20122;-79
2022/08/28 10:17:24;;;;;;;2.70;0.80;;;;;;;;;;4961055;28;20129;-77
2022/08/28 10:20:08;;;;;;;1.55;0.73;;;19.20;99.90;;;;;;4961122;28;20054;-79
2022/08/28 10:23:05;;;;;;;3.20;0.63;;;19.00;99.90;;;;;;4962231;28;20249;-78
2022/08/28 10:26:07;;;;;;;5.32;0.82;;;19.40;99.90;;;;;;4966256;28;20042;-78
2022/08/28 10:28:54;;;;;;;5.60;0.93;;;19.20;99.90;;;;;;4960964;28;20384;-79
2022/08/28 10:31:44;;;;;;;1.90;0.70;;;19.40;99.90;;;;;;4960690;28;20053;-78
2022/08/28 10:34:41;;;;;;;2.67;1.05;;;19.50;99.90;;;;;;4961083;28;20407;-79
2022/08/28 10:37:19;;;;;;;4.25;0.90;;;19.40;99.90;;;;;;4970094;28;20434;-80
2022/08/28 10:39:56;;;;;;;4.00;0.80;;;19.40;99.90;;;;;;4960835;28;20050;-81
2022/08/28 10:42:31;;;;;;;3.42;0.70;;;19.40;99.90;;;;;;4966096;28;20050;-78
2022/08/28 10:45:04;;;;;;;3.42;0.73;;;19.40;99.90;;;;;;4965941;28;20043;-81
2022/08/28 10:47:34;;;;;;;2.42;0.60;;;19.50;99.90;;;;;;4966929;28;20062;-81
2022/08/28 10:50:07;;;;;;;4.00;0.80;;;19.30;99.90;;;;;;4971409;28;20053;-79
2022/08/28 10:52:45;;;;;;;3.33;0.70;;;19.60;99.90;;;;;;4966714;28;20059;-81
2022/08/28 10:55:17;;;;;;;2.25;0.80;;;19.50;99.90;;;;;;4963024;28;20054;-80
2022/08/28 10:57:50;;;;;;;3.17;0.60;;;19.70;99.90;;;;;;4965065;28;20054;-81
2022/08/28 11:00:19;;;;;;;6.07;0.98;;;19.70;99.90;;;;;;4979007;28;20512;-82
2022/08/28 11:02:50;;;;;;;3.25;0.63;;;19.90;99.90;;;;;;4965202;28;20477;-78
2022/08/28 11:05:22;;;;;;;5.65;0.90;;;19.60;99.90;;;;;;4971661;28;20042;-80
2022/08/28 11:07:53;;;;;;;4.18;1.00;;;19.80;99.90;;;;;;4972634;28;20058;-89
2022/08/28 11:10:28;;;;;;;3.70;0.77;;;;;;;;;;4970090;28;20042;-85
2022/08/28 11:12:54;;;;;;;2.45;0.82;;;19.50;98.30;;;;;;4967079;28;20482;-82
2022/08/28 11:15:26;;;;;;;3.13;0.93;;;19.40;98.60;;;;;;4968667;28;20511;-79
2022/08/28 11:17:54;;;;;;;4.88;0.70;;;19.50;98.70;;;;;;4971867;28;20055;-87
2022/08/28 11:20:24;;;;;;;3.33;0.75;;;19.60;98.50;;;;;;4972231;28;20485;-82
2022/08/28 11:23:15;;;;;;;4.22;0.80;;;19.70;98.30;;;;;;4971082;28;20067;-80
2022/08/28 11:26:05;;;;;;;3.20;0.60;;;19.70;97.90;;;;;;4966447;28;20755;-78
2022/08/28 11:28:34;;;;;;;3.58;0.80;;;19.60;98.10;;;;;;4965040;28;20097;-75
2022/08/28 11:30:59;;;;;;;4.88;0.70;;;19.50;98.30;;;;;;4965137;28;20077;-76
2022/08/28 11:33:51;;;;;;;3.08;0.80;;;19.50;99.00;;;;;;4969147;28;20137;-78
2022/08/28 11:36:22;;;;;;;4.40;0.80;;;19.50;98.80;;;;;;4968472;28;20051;-78
2022/08/28 11:38:51;;;;;;;3.70;0.90;;;19.60;98.60;;;;;;4967405;28;20434;-76
2022/08/28 11:41:21;;;;;;;5.22;0.80;;;19.60;98.30;;;;;;4969507;28;20043;-75
2022/08/28 11:43:49;;;;;;;3.20;0.98;;;19.50;97.60;;;;;;4966819;28;20059;-80
2022/08/28 11:46:15;;;;;;;2.33;0.88;;;19.50;97.40;;;;;;4970011;28;20046;-76
2022/08/28 11:48:49;;;;;;;4.93;1.10;;;19.50;97.60;;;;;;4966659;28;20038;-78
2022/08/28 11:51:17;;;;;;;5.47;1.13;;;19.60;96.80;;;;;;4968075;28;20063;-78
2022/08/28 11:53:53;;;;;;;2.45;0.98;;;19.60;96.70;;;;;;4968724;28;20054;-76
2022/08/28 11:56:59;;;;;;;4.35;1.20;;;19.70;96.30;;;;;;4968845;28;20469;-77
2022/08/28 11:59:33;;;;;;;3.00;0.80;;;18.90;96.60;;;;;;4967763;28;20507;-81
2022/08/28 12:02:35;;;;;;;2.22;0.88;;;19.70;97.60;;;;;;4967387;28;20046;-78
2022/08/28 12:05:08;;;;;;;4.95;0.93;;;19.70;98.10;;;;;;4968566;28;20047;-79
2022/08/28 12:07:39;;;;;;;4.25;1.00;;;19.70;98.20;;;;;;4968341;28;20050;-78
2022/08/28 12:10:23;;;;;;;4.32;0.90;;;19.60;98.40;;;;;;4965347;28;20411;-76
2022/08/28 12:12:56;;;;;;;3.42;0.88;;;19.50;99.90;;;;;;4965239;28;20526;-80
2022/08/28 12:15:32;;;;;;;3.20;0.90;;;19.50;98.70;;;;;;4971356;28;20511;-78
2022/08/28 12:18:11;;;;;;;4.78;0.90;;;19.50;98.30;;;;;;4991217;28;20057;-78
2022/08/28 12:21:05;;;;;;;3.95;0.80;;;19.60;98.20;;;;;;4981084;28;20050;-77
2022/08/28 12:24:02;;;;;;;4.72;0.98;;;19.70;97.80;;;;;;4973750;28;20053;-79
2022/08/28 12:26:38;;;;;;;4.60;1.00;;;19.80;97.20;;;;;;4969842;28;20038;-78
2022/08/28 12:29:20;;;;;;;6.03;0.93;;;19.80;97.60;;;;;;4979124;28;20046;-80
2022/08/28 12:32:14;;;;;;;3.70;0.90;;;19.80;98.00;;;;;;4967911;28;20043;-76
2022/08/28 12:34:58;;;;;;;2.60;0.73;;;19.70;97.40;;;;;;4963878;28;20051;-76
2022/08/28 12:37:34;;;;;;;3.75;1.00;;;19.70;97.10;;;;;;4965043;28;20043;-79
2022/08/28 12:40:07;;;;;;;3.47;0.70;;;19.70;97.10;;;;;;4962916;28;20078;-77
2022/08/28 12:42:38;;;;;;;2.08;0.80;;;19.60;97.00;;;;;;4964734;28;20129;-82
2022/08/28 12:45:08;;;;;;;2.80;0.80;;;19.50;97.00;;;;;;4965064;28;20417;-78
2022/08/28 12:47:36;;;;;;;2.55;0.70;;;19.50;97.00;;;;;;4968252;28;20050;-77
2022/08/28 12:50:28;;;;;;;2.55;0.77;;;19.50;97.10;;;;;;4985222;28;20391;-77
2022/08/28 12:52:58;;;;;;;1.98;0.70;;;19.50;97.40;;;;;;4963681;28;20053;-78
2022/08/28 12:55:25;;;;;;;1.40;0.68;;;19.50;97.40;;;;;;4969065;28;20058;-78
2022/08/28 12:57:52;;;;;;;4.93;0.75;;;19.50;97.00;;;;;;4970949;28;20047;-81
2022/08/28 13:00:31;;;;;;;2.97;0.80;;;19.50;97.00;;;;;;4970912;28;20043;-83
2022/08/28 13:02:59;;;;;;;3.55;0.80;;;19.60;97.10;;;;;;4971682;28;20590;-82
2022/08/28 13:05:40;;;;;;;2.80;0.65;;;19.70;97.10;;;;;;4972742;28;20066;-79
2022/08/28 13:08:10;;;;;;;2.22;0.50;;;19.80;97.00;;;;;;4971626;28;20415;-82
2022/08/28 13:10:46;;;;;;;2.83;0.60;;;19.80;97.10;;;;;;4971995;28;20047;-82
2022/08/28 13:13:27;;;;;;;4.20;0.80;;;19.80;97.40;;;;;;4971911;28;20094;-82